Time,TemperatureF,DewpointF,PressureIn,WindDirection,WindDirectionDegrees,WindSpeedMPH,WindSpeedGustMPH,Humidity,HourlyPrecipIn,Conditions,Clouds,dailyrainin,SoftwareType,DateUTC
2013-09-27 00:23:00,76.0,54.0,28.20,ESE,106,3.0,5.0,47,0.00,,,0.00,,2013-09-27 05:23:00,
2013-09-27 00:34:00,76.0,54.0,28.20,ESE,106,3.0,5.0,47,0.00,,,0.00,,2013-09-27 05:34:00,
2013-09-27 00:52:00,76.0,54.0,28.20,ESE,106,3.0,5.0,47,0.00,,,0.00,,2013-09-27 05:52:00,
2013-09-27 01:11:00,75.0,53.0,28.20,SE,144,6.0,10.0,47,0.00,,,0.00,,2013-09-27 06:11:00,
2013-09-27 01:22:00,75.0,53.0,28.20,SE,144,6.0,10.0,47,0.00,,,0.00,,2013-09-27 06:22:00,
2013-09-27 01:52:00,75.0,53.0,28.22,SE,137,2.0,7.0,46,0.00,,,0.00,,2013-09-27 06:52:00,
2013-09-27 02:22:00,76.0,52.0,28.22,SSE,151,5.0,7.0,43,0.00,,,0.00,,2013-09-27 07:22:00,
2013-09-27 02:53:00,76.0,51.0,28.22,SE,144,3.0,7.0,42,0.00,,,0.00,,2013-09-27 07:53:00,
2013-09-27 03:22:00,76.0,51.0,28.22,SSE,166,3.0,5.0,42,0.00,,,0.00,,2013-09-27 08:22:00,
2013-09-27 03:52:00,76.0,51.0,28.22,SSE,168,5.0,9.0,42,0.00,,,0.00,,2013-09-27 08:52:00,
2013-09-27 04:02:00,76.0,51.0,28.22,SSE,168,5.0,9.0,42,0.00,,,0.00,,2013-09-27 09:02:00,
2013-09-27 05:23:00,74.0,50.0,28.22,SE,138,3.0,5.0,43,0.00,,,0.00,,2013-09-27 10:23:00,
2013-09-27 05:33:00,74.0,50.0,28.22,SE,138,3.0,5.0,43,0.00,,,0.00,,2013-09-27 10:33:00,
2013-09-27 05:52:00,73.0,50.0,28.22,SSE,153,2.0,7.0,44,0.00,,,0.00,,2013-09-27 10:52:00,
2013-09-27 06:02:00,73.0,50.0,28.22,SSE,153,2.0,7.0,44,0.00,,,0.00,,2013-09-27 11:02:00,
2013-09-27 07:12:00,71.0,49.0,28.25,ESE,113,3.0,7.0,46,0.00,,,0.00,,2013-09-27 12:12:00,
2013-09-27 07:21:00,71.0,49.0,28.25,ESE,113,3.0,7.0,46,0.00,,,0.00,,2013-09-27 12:21:00,
2013-09-27 07:52:00,70.0,49.0,28.25,SSW,195,3.0,6.0,47,0.00,,,0.00,,2013-09-27 12:52:00,
2013-09-27 08:22:00,70.0,49.0,28.25,SSE,159,3.0,3.0,48,0.00,,,0.00,,2013-09-27 13:22:00,
2013-09-27 08:53:00,71.0,51.0,28.25,ESE,108,5.0,7.0,50,0.00,,,0.00,,2013-09-27 13:53:00,
2013-09-27 09:02:00,71.0,51.0,28.25,ESE,108,5.0,7.0,50,0.00,,,0.00,,2013-09-27 14:02:00,
2013-09-27 09:22:00,72.0,52.0,28.25,SE,138,5.0,8.0,49,0.00,,,0.00,,2013-09-27 14:22:00,
2013-09-27 09:52:00,73.0,52.0,28.25,SE,131,7.0,11.0,47,0.00,,,0.00,,2013-09-27 14:52:00,
2013-09-27 10:02:00,73.0,52.0,28.25,SE,131,7.0,11.0,47,0.00,,,0.00,,2013-09-27 15:02:00,
2013-09-27 10:21:00,77.0,53.0,28.25,SE,127,5.0,5.0,43,0.00,,,0.00,,2013-09-27 15:21:00,
2013-09-27 10:33:00,77.0,53.0,28.25,SE,127,5.0,5.0,43,0.00,,,0.00,,2013-09-27 15:33:00,
2013-09-27 10:54:00,79.0,54.0,28.25,ESE,121,4.0,11.0,42,0.00,,,0.00,,2013-09-27 15:54:00,
2013-09-27 11:13:00,80.0,54.0,28.25,SE,144,8.0,11.0,41,0.00,,,0.00,,2013-09-27 16:13:00,
2013-09-27 11:24:00,80.0,54.0,28.25,SE,144,8.0,11.0,41,0.00,,,0.00,,2013-09-27 16:24:00,
2013-09-27 11:34:00,80.0,54.0,28.25,SE,144,8.0,11.0,41,0.00,,,0.00,,2013-09-27 16:34:00,
2013-09-27 11:53:00,84.0,55.0,28.25,South,170,5.0,13.0,37,0.00,,,0.00,,2013-09-27 16:53:00,
2013-09-27 12:03:00,84.0,55.0,28.25,South,170,5.0,13.0,37,0.00,,,0.00,,2013-09-27 17:03:00,
2013-09-27 12:23:00,86.0,56.0,28.25,SSE,147,4.0,15.0,36,0.00,,,0.00,,2013-09-27 17:23:00,
2013-09-27 12:34:00,86.0,56.0,28.25,SSE,147,4.0,15.0,36,0.00,,,0.00,,2013-09-27 17:34:00,
2013-09-27 12:52:00,86.0,56.0,28.25,SSE,147,4.0,15.0,36,0.00,,,0.00,,2013-09-27 17:52:00,
2013-09-27 13:22:00,88.0,56.0,28.22,NNW,334,3.0,10.0,34,0.00,,,0.00,,2013-09-27 18:22:00,
2013-09-27 13:33:00,88.0,56.0,28.22,NNW,334,3.0,10.0,34,0.00,,,0.00,,2013-09-27 18:33:00,
2013-09-27 13:52:00,89.0,56.0,28.22,SW,230,3.0,11.0,33,0.00,,,0.00,,2013-09-27 18:52:00,
2013-09-27 20:52:00,79.0,51.0,28.17,South,180,5.0,9.0,38,0.00,,,0.00,,2013-09-28 01:52:00,
2013-09-27 21:03:00,79.0,51.0,28.17,South,180,5.0,9.0,38,0.00,,,0.00,,2013-09-28 02:03:00,
2013-09-27 21:22:00,79.0,51.0,28.20,SSE,153,3.0,9.0,38,0.00,,,0.00,,2013-09-28 02:22:00,
2013-09-27 21:32:00,79.0,51.0,28.20,SSE,153,3.0,9.0,38,0.00,,,0.00,,2013-09-28 02:32:00,
2013-09-27 21:53:00,78.0,52.0,28.20,South,182,3.0,10.0,40,0.00,,,0.00,,2013-09-28 02:53:00,
2013-09-27 22:12:00,78.0,52.0,28.20,SSE,155,7.0,10.0,40,0.00,,,0.00,,2013-09-28 03:12:00,
2013-09-27 22:22:00,78.0,52.0,28.20,SSE,155,7.0,10.0,40,0.00,,,0.00,,2013-09-28 03:22:00,
2013-09-27 22:34:00,78.0,52.0,28.20,SSE,155,7.0,10.0,40,0.00,,,0.00,,2013-09-28 03:34:00,
2013-09-27 23:03:00,76.0,51.0,28.20,NNE,21,3.0,7.0,42,0.00,,,0.00,,2013-09-28 04:03:00,
2013-09-27 23:25:00,76.0,51.0,28.20,NNE,21,3.0,7.0,42,0.00,,,0.00,,2013-09-28 04:25:00,
2013-09-27 23:34:00,76.0,51.0,28.20,NNE,21,3.0,7.0,42,0.00,,,0.00,,2013-09-28 04:34:00,
2013-09-27 23:54:00,76.0,51.0,28.20,NNE,21,3.0,7.0,42,0.00,,,0.00,,2013-09-28 04:54:00,